Aviation Digital Data Service (ADDS)

Output produced by METARs form (0758 UTC 14 December 2017)
found at http://aviationweather.gov/adds/metars/
 
KPHX 140520Z 1406/1512 08006KT P6SM SCT250 
     FM142000 03008G15KT P6SM SKC 
     FM150300 04007KT P6SM SKC